Pahala, Hawaii
Current Conditions -  °F | °C
As of 11:56 PM on Friday 28 Nov 2014 (Local Time) from PHSF Reporting Station
Clear Clear  
Wind Chill: 11°   Ceiling: Unl
Heat Index: 11°   Visibility: 10mi
Dew Point:   Wind: 7mph
Humidity: 79%   Direction: 120°ESE
Pressure: 30.3"   Gusts: NA
Location:  19.2°N, 155.47°W
Report Text: PHSF 290956Z AUTO 12006KT 10SM CLR 11/07 A3030 RMK AO2 SLP147 T01080073 402010057 $
Loading
Personal Weather Stations






























Interactive Weather Map New forecast layout! Learn more

10-Day Weather Forecast

Advertisements
Track Severe Weather on mobile